sensor_id;sensor_type;location;lat;lon;timestamp;P1;durP1;ratioP1;P2;durP2;ratioP2
33495;SDS011;19836;55.812;37.560;2024-02-21T00:00:02;12.50;;;8.52;;
33495;SDS011;19836;55.812;37.560;2024-02-21T00:02:30;11.70;;;8.45;;
33495;SDS011;19836;55.812;37.560;2024-02-21T00:04:56;12.85;;;9.02;;
33495;SDS011;19836;55.812;37.560;2024-02-21T00:07:22;11.48;;;8.93;;
33495;SDS011;19836;55.812;37.560;2024-02-21T00:09:48;12.50;;;9.07;;
33495;SDS011;19836;55.812;37.560;2024-02-21T00:12:15;11.50;;;8.60;;
33495;SDS011;19836;55.812;37.560;2024-02-21T00:14:41;14.40;;;9.45;;
33495;SDS011;19836;55.812;37.560;2024-02-21T00:17:07;11.63;;;9.10;;
33495;SDS011;19836;55.812;37.560;2024-02-21T00:19:34;13.25;;;9.15;;
33495;SDS011;19836;55.812;37.560;2024-02-21T00:22:00;15.23;;;10.10;;
33495;SDS011;19836;55.812;37.560;2024-02-21T00:24:26;13.25;;;8.85;;
33495;SDS011;19836;55.812;37.560;2024-02-21T00:26:53;11.73;;;9.15;;
33495;SDS011;19836;55.812;37.560;2024-02-21T00:29:19;13.52;;;9.18;;
33495;SDS011;19836;55.812;37.560;2024-02-21T00:31:45;14.13;;;9.55;;
33495;SDS011;19836;55.812;37.560;2024-02-21T00:34:11;13.60;;;9.82;;
33495;SDS011;19836;55.812;37.560;2024-02-21T00:36:38;13.55;;;10.10;;
33495;SDS011;19836;55.812;37.560;2024-02-21T00:39:04;13.27;;;9.93;;
33495;SDS011;19836;55.812;37.560;2024-02-21T00:41:31;12.57;;;9.55;;
33495;SDS011;19836;55.812;37.560;2024-02-21T00:43:57;14.15;;;9.38;;
33495;SDS011;19836;55.812;37.560;2024-02-21T00:46:23;13.52;;;10.73;;
33495;SDS011;19836;55.812;37.560;2024-02-21T00:48:49;15.73;;;10.45;;
33495;SDS011;19836;55.812;37.560;2024-02-21T00:51:16;14.27;;;9.00;;
33495;SDS011;19836;55.812;37.560;2024-02-21T00:53:42;14.18;;;10.00;;
33495;SDS011;19836;55.812;37.560;2024-02-21T00:56:08;16.40;;;10.40;;
33495;SDS011;19836;55.812;37.560;2024-02-21T00:58:34;13.35;;;9.27;;
33495;SDS011;19836;55.812;37.560;2024-02-21T01:01:00;13.88;;;9.30;;
33495;SDS011;19836;55.812;37.560;2024-02-21T01:03:27;14.43;;;10.68;;
33495;SDS011;19836;55.812;37.560;2024-02-21T01:05:53;13.48;;;10.00;;
33495;SDS011;19836;55.812;37.560;2024-02-21T01:08:19;14.50;;;10.38;;
33495;SDS011;19836;55.812;37.560;2024-02-21T01:10:44;13.18;;;9.10;;
33495;SDS011;19836;55.812;37.560;2024-02-21T01:13:10;13.02;;;9.55;;
33495;SDS011;19836;55.812;37.560;2024-02-21T01:15:36;15.15;;;9.88;;
33495;SDS011;19836;55.812;37.560;2024-02-21T01:18:02;14.70;;;10.60;;
33495;SDS011;19836;55.812;37.560;2024-02-21T01:20:30;12.85;;;9.38;;
33495;SDS011;19836;55.812;37.560;2024-02-21T01:22:56;14.98;;;10.00;;
33495;SDS011;19836;55.812;37.560;2024-02-21T01:25:23;9.18;;;5.80;;
33495;SDS011;19836;55.812;37.560;2024-02-21T01:27:49;16.40;;;10.15;;
33495;SDS011;19836;55.812;37.560;2024-02-21T01:30:14;11.35;;;8.80;;
33495;SDS011;19836;55.812;37.560;2024-02-21T01:32:40;13.50;;;10.07;;
33495;SDS011;19836;55.812;37.560;2024-02-21T01:35:07;12.70;;;9.35;;
33495;SDS011;19836;55.812;37.560;2024-02-21T01:37:33;16.77;;;10.93;;
33495;SDS011;19836;55.812;37.560;2024-02-21T01:39:59;13.57;;;9.25;;
33495;SDS011;19836;55.812;37.560;2024-02-21T01:42:25;13.30;;;9.55;;
33495;SDS011;19836;55.812;37.560;2024-02-21T01:44:51;13.32;;;9.38;;
33495;SDS011;19836;55.812;37.560;2024-02-21T01:47:17;14.07;;;10.20;;
33495;SDS011;19836;55.812;37.560;2024-02-21T01:49:43;13.65;;;10.25;;
33495;SDS011;19836;55.812;37.560;2024-02-21T01:52:09;14.90;;;10.35;;
33495;SDS011;19836;55.812;37.560;2024-02-21T01:54:39;15.13;;;10.02;;
33495;SDS011;19836;55.812;37.560;2024-02-21T01:57:29;14.27;;;9.82;;
33495;SDS011;19836;55.812;37.560;2024-02-21T02:00:03;11.55;;;8.57;;
33495;SDS011;19836;55.812;37.560;2024-02-21T02:02:36;13.45;;;9.88;;
33495;SDS011;19836;55.812;37.560;2024-02-21T02:05:04;14.23;;;9.80;;
33495;SDS011;19836;55.812;37.560;2024-02-21T02:07:31;14.70;;;10.68;;
33495;SDS011;19836;55.812;37.560;2024-02-21T02:09:57;13.38;;;9.65;;
33495;SDS011;19836;55.812;37.560;2024-02-21T02:12:29;11.35;;;8.27;;
33495;SDS011;19836;55.812;37.560;2024-02-21T02:14:59;14.10;;;8.73;;
33495;SDS011;19836;55.812;37.560;2024-02-21T02:17:28;13.55;;;8.32;;
33495;SDS011;19836;55.812;37.560;2024-02-21T02:19:54;15.02;;;10.55;;
33495;SDS011;19836;55.812;37.560;2024-02-21T02:22:22;13.20;;;9.88;;
33495;SDS011;19836;55.812;37.560;2024-02-21T02:24:53;14.25;;;9.93;;
33495;SDS011;19836;55.812;37.560;2024-02-21T02:27:25;13.05;;;9.20;;
33495;SDS011;19836;55.812;37.560;2024-02-21T02:29:51;15.18;;;10.55;;
33495;SDS011;19836;55.812;37.560;2024-02-21T02:32:18;12.32;;;8.90;;
33495;SDS011;19836;55.812;37.560;2024-02-21T02:34:44;13.80;;;9.85;;
33495;SDS011;19836;55.812;37.560;2024-02-21T02:37:13;12.90;;;9.30;;
33495;SDS011;19836;55.812;37.560;2024-02-21T02:39:39;14.70;;;10.65;;
33495;SDS011;19836;55.812;37.560;2024-02-21T02:42:05;13.25;;;9.50;;
33495;SDS011;19836;55.812;37.560;2024-02-21T02:44:31;12.65;;;9.07;;
33495;SDS011;19836;55.812;37.560;2024-02-21T02:46:56;15.27;;;10.07;;
33495;SDS011;19836;55.812;37.560;2024-02-21T02:49:22;15.75;;;9.63;;
33495;SDS011;19836;55.812;37.560;2024-02-21T02:51:48;13.27;;;9.80;;
33495;SDS011;19836;55.812;37.560;2024-02-21T02:54:14;13.50;;;9.27;;
33495;SDS011;19836;55.812;37.560;2024-02-21T02:56:40;12.60;;;9.13;;
33495;SDS011;19836;55.812;37.560;2024-02-21T02:59:06;14.02;;;9.90;;
33495;SDS011;19836;55.812;37.560;2024-02-21T03:01:35;12.38;;;8.40;;
33495;SDS011;19836;55.812;37.560;2024-02-21T03:04:01;17.88;;;10.98;;
33495;SDS011;19836;55.812;37.560;2024-02-21T03:06:27;13.55;;;9.55;;
33495;SDS011;19836;55.812;37.560;2024-02-21T03:08:53;12.93;;;9.15;;
33495;SDS011;19836;55.812;37.560;2024-02-21T03:11:20;13.35;;;9.50;;
33495;SDS011;19836;55.812;37.560;2024-02-21T03:13:51;15.43;;;10.38;;
33495;SDS011;19836;55.812;37.560;2024-02-21T03:19:08;13.25;;;9.38;;
33495;SDS011;19836;55.812;37.560;2024-02-21T03:21:34;18.30;;;9.93;;
33495;SDS011;19836;55.812;37.560;2024-02-21T03:24:02;14.93;;;10.00;;
33495;SDS011;19836;55.812;37.560;2024-02-21T03:26:28;13.85;;;9.48;;
33495;SDS011;19836;55.812;37.560;2024-02-21T03:28:54;16.08;;;9.45;;
33495;SDS011;19836;55.812;37.560;2024-02-21T03:31:20;14.68;;;10.10;;
33495;SDS011;19836;55.812;37.560;2024-02-21T03:33:46;14.57;;;10.15;;
33495;SDS011;19836;55.812;37.560;2024-02-21T03:36:15;16.50;;;10.07;;
33495;SDS011;19836;55.812;37.560;2024-02-21T03:38:41;16.88;;;10.82;;
33495;SDS011;19836;55.812;37.560;2024-02-21T03:41:07;15.32;;;9.88;;
33495;SDS011;19836;55.812;37.560;2024-02-21T03:43:33;15.07;;;9.73;;
33495;SDS011;19836;55.812;37.560;2024-02-21T03:45:59;15.45;;;11.05;;
33495;SDS011;19836;55.812;37.560;2024-02-21T03:48:25;15.95;;;11.18;;
33495;SDS011;19836;55.812;37.560;2024-02-21T03:50:51;13.45;;;9.77;;
33495;SDS011;19836;55.812;37.560;2024-02-21T03:53:16;17.38;;;11.27;;
33495;SDS011;19836;55.812;37.560;2024-02-21T03:55:42;14.23;;;8.52;;
33495;SDS011;19836;55.812;37.560;2024-02-21T03:58:08;13.93;;;10.68;;
33495;SDS011;19836;55.812;37.560;2024-02-21T04:00:34;15.55;;;10.63;;
33495;SDS011;19836;55.812;37.560;2024-02-21T04:03:00;16.27;;;11.20;;
33495;SDS011;19836;55.812;37.560;2024-02-21T04:05:26;15.85;;;10.90;;
33495;SDS011;19836;55.812;37.560;2024-02-21T04:07:54;15.85;;;11.70;;
33495;SDS011;19836;55.812;37.560;2024-02-21T04:10:20;15.98;;;10.52;;
33495;SDS011;19836;55.812;37.560;2024-02-21T04:12:46;16.58;;;10.98;;
33495;SDS011;19836;55.812;37.560;2024-02-21T04:15:11;14.00;;;10.30;;
33495;SDS011;19836;55.812;37.560;2024-02-21T04:17:38;18.50;;;11.73;;
33495;SDS011;19836;55.812;37.560;2024-02-21T04:20:04;16.88;;;10.38;;
33495;SDS011;19836;55.812;37.560;2024-02-21T04:22:31;16.92;;;11.02;;
33495;SDS011;19836;55.812;37.560;2024-02-21T04:24:59;16.23;;;10.80;;
33495;SDS011;19836;55.812;37.560;2024-02-21T04:27:25;16.88;;;10.80;;
33495;SDS011;19836;55.812;37.560;2024-02-21T04:29:52;13.35;;;9.25;;
33495;SDS011;19836;55.812;37.560;2024-02-21T04:32:18;16.73;;;10.75;;
33495;SDS011;19836;55.812;37.560;2024-02-21T04:34:44;13.98;;;10.13;;
33495;SDS011;19836;55.812;37.560;2024-02-21T04:37:10;15.23;;;10.15;;
33495;SDS011;19836;55.812;37.560;2024-02-21T04:39:36;16.33;;;10.48;;
33495;SDS011;19836;55.812;37.560;2024-02-21T04:42:02;15.05;;;11.13;;
33495;SDS011;19836;55.812;37.560;2024-02-21T04:44:28;16.30;;;10.50;;
33495;SDS011;19836;55.812;37.560;2024-02-21T04:46:54;15.70;;;10.23;;
33495;SDS011;19836;55.812;37.560;2024-02-21T04:49:20;15.98;;;10.63;;
33495;SDS011;19836;55.812;37.560;2024-02-21T04:51:45;17.17;;;11.07;;
33495;SDS011;19836;55.812;37.560;2024-02-21T04:54:11;14.57;;;10.27;;
33495;SDS011;19836;55.812;37.560;2024-02-21T04:56:37;15.90;;;10.68;;
33495;SDS011;19836;55.812;37.560;2024-02-21T04:59:03;12.32;;;7.35;;
33495;SDS011;19836;55.812;37.560;2024-02-21T05:01:29;15.05;;;10.90;;
33495;SDS011;19836;55.812;37.560;2024-02-21T05:03:55;14.02;;;10.45;;
33495;SDS011;19836;55.812;37.560;2024-02-21T05:06:21;16.10;;;11.30;;
33495;SDS011;19836;55.812;37.560;2024-02-21T05:08:47;13.68;;;10.35;;
33495;SDS011;19836;55.812;37.560;2024-02-21T05:11:14;16.52;;;9.75;;
33495;SDS011;19836;55.812;37.560;2024-02-21T05:13:41;15.27;;;10.55;;
33495;SDS011;19836;55.812;37.560;2024-02-21T05:16:07;18.38;;;11.30;;
33495;SDS011;19836;55.812;37.560;2024-02-21T05:18:33;15.80;;;10.50;;
33495;SDS011;19836;55.812;37.560;2024-02-21T05:21:02;14.48;;;9.20;;
33495;SDS011;19836;55.812;37.560;2024-02-21T05:23:28;13.80;;;9.57;;
33495;SDS011;19836;55.812;37.560;2024-02-21T05:25:55;15.43;;;11.13;;
33495;SDS011;19836;55.812;37.560;2024-02-21T05:28:21;13.20;;;9.77;;
33495;SDS011;19836;55.812;37.560;2024-02-21T05:30:46;17.02;;;10.57;;
33495;SDS011;19836;55.812;37.560;2024-02-21T05:33:13;15.80;;;10.57;;
33495;SDS011;19836;55.812;37.560;2024-02-21T05:35:47;14.30;;;10.10;;
33495;SDS011;19836;55.812;37.560;2024-02-21T05:38:16;15.27;;;10.75;;
33495;SDS011;19836;55.812;37.560;2024-02-21T05:40:42;15.13;;;11.00;;
33495;SDS011;19836;55.812;37.560;2024-02-21T05:43:10;15.30;;;11.02;;
33495;SDS011;19836;55.812;37.560;2024-02-21T05:45:36;13.98;;;9.68;;
33495;SDS011;19836;55.812;37.560;2024-02-21T05:48:03;15.60;;;10.15;;
33495;SDS011;19836;55.812;37.560;2024-02-21T05:50:30;16.45;;;11.45;;
33495;SDS011;19836;55.812;37.560;2024-02-21T05:55:48;14.05;;;8.85;;
33495;SDS011;19836;55.812;37.560;2024-02-21T05:58:30;17.08;;;10.93;;
33495;SDS011;19836;55.812;37.560;2024-02-21T06:00:56;16.65;;;11.77;;
33495;SDS011;19836;55.812;37.560;2024-02-21T06:03:23;17.65;;;11.60;;
33495;SDS011;19836;55.812;37.560;2024-02-21T06:05:48;17.60;;;11.27;;
33495;SDS011;19836;55.812;37.560;2024-02-21T06:08:15;16.10;;;11.07;;
33495;SDS011;19836;55.812;37.560;2024-02-21T06:10:40;17.65;;;11.52;;
33495;SDS011;19836;55.812;37.560;2024-02-21T06:13:07;17.88;;;10.32;;
33495;SDS011;19836;55.812;37.560;2024-02-21T06:15:35;14.70;;;11.00;;
33495;SDS011;19836;55.812;37.560;2024-02-21T06:18:01;18.55;;;11.70;;
33495;SDS011;19836;55.812;37.560;2024-02-21T06:20:27;15.02;;;10.40;;
33495;SDS011;19836;55.812;37.560;2024-02-21T06:22:54;15.63;;;10.20;;
33495;SDS011;19836;55.812;37.560;2024-02-21T06:25:20;16.02;;;10.70;;
33495;SDS011;19836;55.812;37.560;2024-02-21T06:27:46;15.13;;;10.05;;
33495;SDS011;19836;55.812;37.560;2024-02-21T06:30:13;14.98;;;10.57;;
33495;SDS011;19836;55.812;37.560;2024-02-21T06:38:11;16.25;;;11.07;;
33495;SDS011;19836;55.812;37.560;2024-02-21T06:43:36;15.82;;;10.23;;
33495;SDS011;19836;55.812;37.560;2024-02-21T06:51:55;16.33;;;11.00;;
33495;SDS011;19836;55.812;37.560;2024-02-21T06:54:40;10.70;;;8.60;;
33495;SDS011;19836;55.812;37.560;2024-02-21T06:57:07;17.33;;;10.95;;
33495;SDS011;19836;55.812;37.560;2024-02-21T06:59:35;11.13;;;9.13;;
33495;SDS011;19836;55.812;37.560;2024-02-21T07:02:04;16.25;;;11.38;;
33495;SDS011;19836;55.812;37.560;2024-02-21T07:04:32;15.35;;;10.88;;
33495;SDS011;19836;55.812;37.560;2024-02-21T07:06:58;10.07;;;8.05;;
33495;SDS011;19836;55.812;37.560;2024-02-21T07:09:28;13.05;;;8.88;;
33495;SDS011;19836;55.812;37.560;2024-02-21T07:11:57;11.55;;;9.20;;
33495;SDS011;19836;55.812;37.560;2024-02-21T07:14:24;11.90;;;9.15;;
33495;SDS011;19836;55.812;37.560;2024-02-21T07:16:58;12.32;;;8.90;;
33495;SDS011;19836;55.812;37.560;2024-02-21T07:19:25;12.30;;;9.18;;
33495;SDS011;19836;55.812;37.560;2024-02-21T07:21:51;12.32;;;8.30;;
33495;SDS011;19836;55.812;37.560;2024-02-21T07:24:26;15.60;;;11.07;;
33495;SDS011;19836;55.812;37.560;2024-02-21T07:27:00;12.07;;;8.57;;
33495;SDS011;19836;55.812;37.560;2024-02-21T07:29:38;10.57;;;8.70;;
33495;SDS011;19836;55.812;37.560;2024-02-21T07:32:07;10.95;;;8.60;;
33495;SDS011;19836;55.812;37.560;2024-02-21T07:34:37;12.77;;;8.60;;
33495;SDS011;19836;55.812;37.560;2024-02-21T07:37:06;14.88;;;9.35;;
33495;SDS011;19836;55.812;37.560;2024-02-21T07:39:35;12.52;;;9.35;;
33495;SDS011;19836;55.812;37.560;2024-02-21T07:42:03;13.88;;;9.07;;
33495;SDS011;19836;55.812;37.560;2024-02-21T07:44:32;10.88;;;8.95;;
33495;SDS011;19836;55.812;37.560;2024-02-21T07:47:03;11.65;;;8.68;;
33495;SDS011;19836;55.812;37.560;2024-02-21T07:49:29;10.45;;;5.78;;
33495;SDS011;19836;55.812;37.560;2024-02-21T07:52:09;14.25;;;8.77;;
33495;SDS011;19836;55.812;37.560;2024-02-21T07:54:39;12.85;;;9.27;;
33495;SDS011;19836;55.812;37.560;2024-02-21T07:57:05;10.90;;;8.73;;
33495;SDS011;19836;55.812;37.560;2024-02-21T07:59:32;10.77;;;7.93;;
33495;SDS011;19836;55.812;37.560;2024-02-21T08:02:08;11.73;;;8.68;;
33495;SDS011;19836;55.812;37.560;2024-02-21T08:04:43;26.52;;;17.23;;
33495;SDS011;19836;55.812;37.560;2024-02-21T08:07:10;13.18;;;9.02;;
33495;SDS011;19836;55.812;37.560;2024-02-21T08:09:39;12.00;;;9.57;;
33495;SDS011;19836;55.812;37.560;2024-02-21T08:12:06;11.57;;;9.18;;
33495;SDS011;19836;55.812;37.560;2024-02-21T08:14:33;11.80;;;8.88;;
33495;SDS011;19836;55.812;37.560;2024-02-21T08:16:59;12.10;;;9.57;;
33495;SDS011;19836;55.812;37.560;2024-02-21T08:19:26;11.35;;;9.10;;
33495;SDS011;19836;55.812;37.560;2024-02-21T08:21:53;11.13;;;9.55;;
33495;SDS011;19836;55.812;37.560;2024-02-21T08:24:19;11.68;;;8.55;;
33495;SDS011;19836;55.812;37.560;2024-02-21T08:26:48;13.40;;;10.18;;
33495;SDS011;19836;55.812;37.560;2024-02-21T08:29:14;12.73;;;9.27;;
33495;SDS011;19836;55.812;37.560;2024-02-21T08:31:41;10.82;;;8.63;;
33495;SDS011;19836;55.812;37.560;2024-02-21T08:34:07;10.68;;;8.50;;
33495;SDS011;19836;55.812;37.560;2024-02-21T08:36:36;12.15;;;9.10;;
33495;SDS011;19836;55.812;37.560;2024-02-21T08:39:03;11.95;;;9.60;;
33495;SDS011;19836;55.812;37.560;2024-02-21T08:41:30;11.02;;;9.55;;
33495;SDS011;19836;55.812;37.560;2024-02-21T08:43:57;11.90;;;9.15;;
33495;SDS011;19836;55.812;37.560;2024-02-21T08:46:23;11.75;;;9.23;;
33495;SDS011;19836;55.812;37.560;2024-02-21T08:48:51;13.68;;;10.00;;
33495;SDS011;19836;55.812;37.560;2024-02-21T08:51:18;13.07;;;9.60;;
33495;SDS011;19836;55.812;37.560;2024-02-21T08:53:48;14.95;;;9.40;;
33495;SDS011;19836;55.812;37.560;2024-02-21T08:56:15;12.05;;;8.88;;
33495;SDS011;19836;55.812;37.560;2024-02-21T08:58:41;11.15;;;8.85;;
33495;SDS011;19836;55.812;37.560;2024-02-21T09:01:11;12.35;;;9.20;;
33495;SDS011;19836;55.812;37.560;2024-02-21T09:03:37;12.90;;;9.57;;
33495;SDS011;19836;55.812;37.560;2024-02-21T09:06:05;15.25;;;10.32;;
33495;SDS011;19836;55.812;37.560;2024-02-21T09:08:33;14.30;;;9.98;;
33495;SDS011;19836;55.812;37.560;2024-02-21T09:11:02;14.82;;;9.35;;
33495;SDS011;19836;55.812;37.560;2024-02-21T09:13:29;13.68;;;9.75;;
33495;SDS011;19836;55.812;37.560;2024-02-21T09:15:56;12.15;;;8.95;;
33495;SDS011;19836;55.812;37.560;2024-02-21T09:18:23;13.05;;;9.77;;
33495;SDS011;19836;55.812;37.560;2024-02-21T09:20:52;13.70;;;10.23;;
33495;SDS011;19836;55.812;37.560;2024-02-21T09:23:19;12.55;;;9.68;;
33495;SDS011;19836;55.812;37.560;2024-02-21T09:25:45;13.02;;;9.77;;
33495;SDS011;19836;55.812;37.560;2024-02-21T09:28:11;12.80;;;9.00;;
33495;SDS011;19836;55.812;37.560;2024-02-21T09:30:39;13.07;;;9.75;;
33495;SDS011;19836;55.812;37.560;2024-02-21T09:33:05;13.32;;;9.82;;
33495;SDS011;19836;55.812;37.560;2024-02-21T09:35:34;12.27;;;9.88;;
33495;SDS011;19836;55.812;37.560;2024-02-21T09:38:04;13.55;;;9.80;;
33495;SDS011;19836;55.812;37.560;2024-02-21T09:40:30;11.18;;;9.10;;
33495;SDS011;19836;55.812;37.560;2024-02-21T09:43:02;11.88;;;10.18;;
33495;SDS011;19836;55.812;37.560;2024-02-21T09:45:33;11.55;;;8.82;;
33495;SDS011;19836;55.812;37.560;2024-02-21T09:50:38;11.07;;;8.63;;
33495;SDS011;19836;55.812;37.560;2024-02-21T09:53:16;11.50;;;8.48;;
33495;SDS011;19836;55.812;37.560;2024-02-21T09:55:45;11.80;;;9.68;;
33495;SDS011;19836;55.812;37.560;2024-02-21T09:58:17;13.75;;;10.00;;
33495;SDS011;19836;55.812;37.560;2024-02-21T10:00:44;11.10;;;8.88;;
33495;SDS011;19836;55.812;37.560;2024-02-21T10:03:10;12.15;;;9.00;;
33495;SDS011;19836;55.812;37.560;2024-02-21T10:05:37;11.25;;;9.18;;
33495;SDS011;19836;55.812;37.560;2024-02-21T10:08:15;12.73;;;8.07;;
33495;SDS011;19836;55.812;37.560;2024-02-21T10:10:45;11.18;;;9.13;;
33495;SDS011;19836;55.812;37.560;2024-02-21T10:13:25;8.60;;;6.47;;
33495;SDS011;19836;55.812;37.560;2024-02-21T10:16:03;11.82;;;9.30;;
33495;SDS011;19836;55.812;37.560;2024-02-21T10:18:30;11.98;;;8.10;;
33495;SDS011;19836;55.812;37.560;2024-02-21T10:21:01;11.18;;;8.35;;
33495;SDS011;19836;55.812;37.560;2024-02-21T10:23:27;13.77;;;8.55;;
33495;SDS011;19836;55.812;37.560;2024-02-21T10:25:53;10.75;;;8.45;;
33495;SDS011;19836;55.812;37.560;2024-02-21T10:28:20;10.30;;;8.25;;
33495;SDS011;19836;55.812;37.560;2024-02-21T10:30:49;12.95;;;7.53;;
33495;SDS011;19836;55.812;37.560;2024-02-21T10:33:22;11.23;;;7.75;;
33495;SDS011;19836;55.812;37.560;2024-02-21T10:35:51;10.10;;;7.25;;
33495;SDS011;19836;55.812;37.560;2024-02-21T10:38:20;12.95;;;8.07;;
33495;SDS011;19836;55.812;37.560;2024-02-21T10:40:46;10.80;;;8.43;;
33495;SDS011;19836;55.812;37.560;2024-02-21T10:43:14;10.48;;;8.70;;
33495;SDS011;19836;55.812;37.560;2024-02-21T10:48:14;10.95;;;7.82;;
33495;SDS011;19836;55.812;37.560;2024-02-21T10:56:12;21.17;;;13.77;;
33495;SDS011;19836;55.812;37.560;2024-02-21T10:58:47;11.38;;;7.78;;
33495;SDS011;19836;55.812;37.560;2024-02-21T11:01:18;11.18;;;9.02;;
33495;SDS011;19836;55.812;37.560;2024-02-21T11:03:45;9.90;;;8.18;;
33495;SDS011;19836;55.812;37.560;2024-02-21T11:06:13;11.32;;;9.05;;
33495;SDS011;19836;55.812;37.560;2024-02-21T11:08:44;9.07;;;6.82;;
33495;SDS011;19836;55.812;37.560;2024-02-21T11:11:12;10.07;;;7.88;;
33495;SDS011;19836;55.812;37.560;2024-02-21T11:13:44;9.52;;;7.40;;
33495;SDS011;19836;55.812;37.560;2024-02-21T11:16:20;11.20;;;7.65;;
33495;SDS011;19836;55.812;37.560;2024-02-21T11:18:48;9.43;;;7.75;;
33495;SDS011;19836;55.812;37.560;2024-02-21T11:21:15;12.50;;;7.80;;
33495;SDS011;19836;55.812;37.560;2024-02-21T11:23:41;9.18;;;7.60;;
33495;SDS011;19836;55.812;37.560;2024-02-21T11:26:17;11.20;;;7.80;;
33495;SDS011;19836;55.812;37.560;2024-02-21T11:28:55;9.20;;;7.15;;
33495;SDS011;19836;55.812;37.560;2024-02-21T11:31:22;9.45;;;7.57;;
33495;SDS011;19836;55.812;37.560;2024-02-21T11:33:49;9.40;;;7.70;;
33495;SDS011;19836;55.812;37.560;2024-02-21T11:36:24;10.05;;;7.53;;
33495;SDS011;19836;55.812;37.560;2024-02-21T11:38:53;10.18;;;8.30;;
33495;SDS011;19836;55.812;37.560;2024-02-21T11:41:30;9.85;;;7.45;;
33495;SDS011;19836;55.812;37.560;2024-02-21T11:43:56;9.45;;;6.90;;
33495;SDS011;19836;55.812;37.560;2024-02-21T11:46:22;9.23;;;7.10;;
33495;SDS011;19836;55.812;37.560;2024-02-21T11:48:51;11.13;;;7.90;;
33495;SDS011;19836;55.812;37.560;2024-02-21T11:51:21;9.55;;;6.97;;
33495;SDS011;19836;55.812;37.560;2024-02-21T11:53:51;9.02;;;6.53;;
33495;SDS011;19836;55.812;37.560;2024-02-21T11:56:19;10.73;;;7.30;;
33495;SDS011;19836;55.812;37.560;2024-02-21T11:58:46;9.10;;;7.00;;
33495;SDS011;19836;55.812;37.560;2024-02-21T12:01:13;10.55;;;7.22;;
33495;SDS011;19836;55.812;37.560;2024-02-21T12:03:40;9.27;;;7.22;;
33495;SDS011;19836;55.812;37.560;2024-02-21T12:06:07;7.88;;;5.97;;
33495;SDS011;19836;55.812;37.560;2024-02-21T12:08:40;9.77;;;7.20;;
33495;SDS011;19836;55.812;37.560;2024-02-21T12:11:19;8.85;;;7.30;;
33495;SDS011;19836;55.812;37.560;2024-02-21T12:14:01;9.93;;;7.20;;
33495;SDS011;19836;55.812;37.560;2024-02-21T12:16:34;9.63;;;7.38;;
33495;SDS011;19836;55.812;37.560;2024-02-21T12:19:02;11.65;;;6.82;;
33495;SDS011;19836;55.812;37.560;2024-02-21T12:21:35;7.70;;;5.18;;
33495;SDS011;19836;55.812;37.560;2024-02-21T12:24:11;9.30;;;6.43;;
33495;SDS011;19836;55.812;37.560;2024-02-21T12:26:42;9.00;;;7.05;;
33495;SDS011;19836;55.812;37.560;2024-02-21T12:29:08;10.82;;;7.38;;
33495;SDS011;19836;55.812;37.560;2024-02-21T12:31:36;10.77;;;7.63;;
33495;SDS011;19836;55.812;37.560;2024-02-21T12:34:03;8.48;;;6.75;;
33495;SDS011;19836;55.812;37.560;2024-02-21T12:36:33;9.18;;;7.68;;
33495;SDS011;19836;55.812;37.560;2024-02-21T12:39:03;9.15;;;7.63;;
33495;SDS011;19836;55.812;37.560;2024-02-21T12:41:30;9.43;;;6.38;;
33495;SDS011;19836;55.812;37.560;2024-02-21T12:43:59;10.02;;;7.70;;
33495;SDS011;19836;55.812;37.560;2024-02-21T12:46:25;10.63;;;7.88;;
33495;SDS011;19836;55.812;37.560;2024-02-21T12:48:52;9.75;;;6.93;;
33495;SDS011;19836;55.812;37.560;2024-02-21T12:51:18;9.88;;;7.35;;
33495;SDS011;19836;55.812;37.560;2024-02-21T12:53:47;10.60;;;8.10;;
33495;SDS011;19836;55.812;37.560;2024-02-21T12:56:15;11.98;;;8.02;;
33495;SDS011;19836;55.812;37.560;2024-02-21T12:58:42;13.38;;;7.50;;
33495;SDS011;19836;55.812;37.560;2024-02-21T13:01:09;8.20;;;6.90;;
33495;SDS011;19836;55.812;37.560;2024-02-21T13:03:38;9.27;;;7.47;;
33495;SDS011;19836;55.812;37.560;2024-02-21T13:06:05;10.18;;;7.50;;
33495;SDS011;19836;55.812;37.560;2024-02-21T13:08:38;11.45;;;7.82;;
33495;SDS011;19836;55.812;37.560;2024-02-21T13:11:05;9.75;;;7.13;;
33495;SDS011;19836;55.812;37.560;2024-02-21T13:13:32;9.30;;;6.90;;
33495;SDS011;19836;55.812;37.560;2024-02-21T13:15:58;9.98;;;7.75;;
33495;SDS011;19836;55.812;37.560;2024-02-21T13:18:28;9.15;;;7.40;;
33495;SDS011;19836;55.812;37.560;2024-02-21T13:20:55;9.93;;;7.43;;
33495;SDS011;19836;55.812;37.560;2024-02-21T13:23:21;9.90;;;7.38;;
33495;SDS011;19836;55.812;37.560;2024-02-21T13:25:48;9.82;;;7.80;;
33495;SDS011;19836;55.812;37.560;2024-02-21T13:28:15;12.02;;;7.95;;
33495;SDS011;19836;55.812;37.560;2024-02-21T13:30:44;9.02;;;6.78;;
33495;SDS011;19836;55.812;37.560;2024-02-21T13:33:11;10.30;;;7.80;;
33495;SDS011;19836;55.812;37.560;2024-02-21T13:35:37;9.10;;;6.70;;
33495;SDS011;19836;55.812;37.560;2024-02-21T13:38:04;8.98;;;7.18;;
33495;SDS011;19836;55.812;37.560;2024-02-21T13:40:31;10.98;;;6.57;;
33495;SDS011;19836;55.812;37.560;2024-02-21T13:43:00;10.75;;;6.78;;
33495;SDS011;19836;55.812;37.560;2024-02-21T13:45:26;9.32;;;7.80;;
33495;SDS011;19836;55.812;37.560;2024-02-21T13:47:53;10.90;;;7.07;;
33495;SDS011;19836;55.812;37.560;2024-02-21T13:50:21;11.13;;;7.70;;
33495;SDS011;19836;55.812;37.560;2024-02-21T13:52:55;12.27;;;7.97;;
33495;SDS011;19836;55.812;37.560;2024-02-21T13:55:28;10.07;;;7.80;;
33495;SDS011;19836;55.812;37.560;2024-02-21T13:58:22;9.48;;;7.13;;
33495;SDS011;19836;55.812;37.560;2024-02-21T14:00:49;8.70;;;7.30;;
33495;SDS011;19836;55.812;37.560;2024-02-21T14:03:22;9.82;;;6.80;;
33495;SDS011;19836;55.812;37.560;2024-02-21T14:05:51;10.93;;;6.82;;
33495;SDS011;19836;55.812;37.560;2024-02-21T14:08:18;11.35;;;7.00;;
33495;SDS011;19836;55.812;37.560;2024-02-21T14:10:50;8.68;;;6.32;;
33495;SDS011;19836;55.812;37.560;2024-02-21T14:13:18;9.38;;;6.90;;
33495;SDS011;19836;55.812;37.560;2024-02-21T14:15:47;10.43;;;7.05;;
33495;SDS011;19836;55.812;37.560;2024-02-21T14:18:15;9.90;;;7.60;;
33495;SDS011;19836;55.812;37.560;2024-02-21T14:20:44;10.82;;;7.70;;
33495;SDS011;19836;55.812;37.560;2024-02-21T14:23:12;9.75;;;7.28;;
33495;SDS011;19836;55.812;37.560;2024-02-21T14:25:39;9.38;;;7.20;;
33495;SDS011;19836;55.812;37.560;2024-02-21T14:28:10;8.95;;;6.47;;
33495;SDS011;19836;55.812;37.560;2024-02-21T14:30:36;9.52;;;6.90;;
33495;SDS011;19836;55.812;37.560;2024-02-21T14:33:03;12.65;;;7.45;;
33495;SDS011;19836;55.812;37.560;2024-02-21T14:35:29;11.07;;;7.43;;
33495;SDS011;19836;55.812;37.560;2024-02-21T14:37:56;9.25;;;7.03;;
33495;SDS011;19836;55.812;37.560;2024-02-21T14:40:23;11.10;;;7.90;;
33495;SDS011;19836;55.812;37.560;2024-02-21T14:42:50;10.18;;;7.63;;
33495;SDS011;19836;55.812;37.560;2024-02-21T14:45:19;9.85;;;7.15;;
33495;SDS011;19836;55.812;37.560;2024-02-21T14:47:47;10.65;;;7.38;;
33495;SDS011;19836;55.812;37.560;2024-02-21T14:50:14;8.60;;;6.82;;
33495;SDS011;19836;55.812;37.560;2024-02-21T14:52:41;8.63;;;7.18;;
33495;SDS011;19836;55.812;37.560;2024-02-21T14:57:40;8.43;;;6.90;;